createdAt,value
2018-08-24T00:01:35.435Z,19.60
2018-08-24T00:04:08.174Z,19.60
2018-08-24T00:06:37.657Z,19.60
2018-08-24T00:09:16.552Z,19.50
2018-08-24T00:11:44.994Z,19.50
2018-08-24T00:14:13.499Z,19.40
2018-08-24T00:16:42.548Z,19.40
2018-08-24T00:19:12.284Z,19.40
2018-08-24T00:21:40.725Z,19.40
2018-08-24T00:24:09.997Z,19.40
2018-08-24T00:26:38.449Z,19.40
2018-08-24T00:29:07.338Z,19.40
2018-08-24T00:31:36.583Z,19.40
2018-08-24T00:34:05.161Z,19.50
2018-08-24T00:36:33.655Z,19.50
2018-08-24T00:39:02.155Z,19.50
2018-08-24T00:41:30.606Z,19.50
2018-08-24T00:43:59.034Z,19.50
2018-08-24T00:46:27.404Z,19.50
2018-08-24T00:48:55.729Z,19.40
2018-08-24T00:51:24.099Z,19.40
2018-08-24T00:53:52.468Z,19.40
2018-08-24T00:56:20.902Z,19.40
2018-08-24T00:58:49.278Z,19.40
2018-08-24T01:01:17.750Z,19.40
2018-08-24T01:03:46.209Z,19.40
2018-08-24T01:06:14.658Z,19.40
2018-08-24T01:08:45.038Z,19.40
2018-08-24T01:11:13.564Z,19.40
2018-08-24T01:13:41.964Z,19.40
2018-08-24T01:16:14.663Z,19.40
2018-08-24T01:18:49.120Z,19.40
2018-08-24T01:21:17.565Z,19.30
2018-08-24T01:23:46.012Z,19.30
2018-08-24T01:26:18.680Z,19.30
2018-08-24T01:28:47.304Z,19.30
2018-08-24T01:31:15.735Z,19.30
2018-08-24T01:33:44.184Z,19.30
2018-08-24T01:36:12.520Z,19.30
2018-08-24T01:38:40.875Z,19.30
2018-08-24T01:41:10.588Z,19.30
2018-08-24T01:43:38.907Z,19.30
2018-08-24T01:46:09.318Z,19.10
2018-08-24T01:48:38.154Z,18.90
2018-08-24T01:51:06.657Z,18.70
2018-08-24T01:53:35.090Z,18.60
2018-08-24T01:56:03.543Z,18.50
2018-08-24T01:58:31.989Z,18.30
2018-08-24T02:01:00.441Z,18.20
2018-08-24T02:03:28.824Z,18.20
2018-08-24T02:06:02.610Z,18.20
2018-08-24T02:08:31.004Z,18.10
2018-08-24T02:10:59.338Z,18.10
2018-08-24T02:13:32.930Z,18.00
2018-08-24T02:16:01.239Z,17.90
2018-08-24T02:18:35.510Z,17.90
2018-08-24T02:21:09.299Z,17.90
2018-08-24T02:23:37.671Z,17.90
2018-08-24T02:26:06.212Z,17.90
2018-08-24T02:28:34.520Z,17.90
2018-08-24T02:31:02.887Z,17.90
2018-08-24T02:33:35.582Z,17.90
2018-08-24T02:36:05.822Z,17.80
2018-08-24T02:38:34.373Z,17.80
2018-08-24T02:41:02.776Z,17.80
2018-08-24T02:43:31.150Z,17.80
2018-08-24T02:46:03.082Z,17.80
2018-08-24T02:48:31.495Z,17.80
2018-08-24T02:51:00.636Z,17.70
2018-08-24T02:53:28.975Z,17.80
2018-08-24T02:55:57.440Z,17.70
2018-08-24T02:58:25.798Z,17.70
2018-08-24T03:00:54.259Z,17.70
2018-08-24T03:03:23.244Z,17.70
2018-08-24T03:05:51.724Z,17.70
2018-08-24T03:08:20.081Z,17.60
2018-08-24T03:10:49.352Z,17.60
2018-08-24T03:13:17.702Z,17.60
2018-08-24T03:15:46.408Z,17.60
2018-08-24T03:18:14.959Z,17.50
2018-08-24T03:20:43.984Z,17.50
2018-08-24T03:23:12.378Z,17.50
2018-08-24T03:25:41.596Z,17.40
2018-08-24T03:28:09.913Z,17.40
2018-08-24T03:30:38.776Z,17.30
2018-08-24T03:33:07.124Z,17.30
2018-08-24T03:35:35.503Z,17.30
2018-08-24T03:38:03.893Z,17.20
2018-08-24T03:40:32.262Z,17.20
2018-08-24T03:43:00.584Z,17.20
2018-08-24T03:45:30.081Z,17.10
2018-08-24T03:47:58.475Z,17.10
2018-08-24T03:50:26.944Z,17.10
2018-08-24T03:52:55.368Z,17.10
2018-08-24T03:55:23.875Z,17.10
2018-08-24T03:57:52.334Z,17.10
2018-08-24T04:00:21.544Z,17.10
2018-08-24T04:02:51.269Z,17.10
2018-08-24T04:05:19.721Z,17.00
2018-08-24T04:07:48.174Z,17.00
2018-08-24T04:10:16.683Z,16.90
2018-08-24T04:12:45.069Z,16.90
2018-08-24T04:15:13.456Z,16.80
2018-08-24T04:17:44.817Z,16.80
2018-08-24T04:20:14.178Z,16.70
2018-08-24T04:22:42.660Z,16.70
2018-08-24T04:25:11.224Z,16.60
2018-08-24T04:27:40.524Z,16.60
2018-08-24T04:30:09.562Z,16.70
2018-08-24T04:32:37.989Z,16.70
2018-08-24T04:35:06.565Z,16.70
2018-08-24T04:37:35.531Z,16.70
2018-08-24T04:40:04.004Z,16.70
2018-08-24T04:42:32.440Z,16.70
2018-08-24T04:45:00.915Z,16.70
2018-08-24T04:47:29.346Z,16.80
2018-08-24T04:49:57.719Z,16.80
2018-08-24T04:52:26.083Z,16.80
2018-08-24T04:54:54.432Z,16.80
2018-08-24T04:57:22.767Z,16.80
2018-08-24T04:59:51.287Z,16.90
2018-08-24T05:02:19.709Z,16.90
2018-08-24T05:04:48.092Z,16.90
2018-08-24T05:07:16.412Z,17.00
2018-08-24T05:09:44.792Z,17.00
2018-08-24T05:12:13.161Z,17.00
2018-08-24T05:14:41.488Z,17.00
2018-08-24T05:17:09.955Z,17.10
2018-08-24T05:19:38.308Z,17.20
2018-08-24T05:22:06.762Z,17.20
2018-08-24T05:24:35.155Z,17.30
2018-08-24T05:27:03.647Z,17.30
2018-08-24T05:29:32.105Z,17.50
2018-08-24T05:32:00.476Z,17.60
2018-08-24T05:34:29.445Z,17.70
2018-08-24T05:36:57.783Z,17.80
2018-08-24T05:39:26.089Z,17.90
2018-08-24T05:41:54.415Z,17.90
2018-08-24T05:44:22.750Z,17.90
2018-08-24T05:46:51.090Z,17.90
2018-08-24T05:49:19.492Z,17.80
2018-08-24T05:51:47.870Z,17.70
2018-08-24T05:54:16.206Z,17.60
2018-08-24T05:56:44.644Z,17.50
2018-08-24T05:59:12.962Z,17.40
2018-08-24T06:01:41.264Z,17.30
2018-08-24T06:04:09.626Z,17.30
2018-08-24T06:06:37.958Z,17.30
2018-08-24T06:09:13.872Z,17.30
2018-08-24T06:11:42.380Z,17.30
2018-08-24T06:14:11.706Z,17.30
2018-08-24T06:16:44.339Z,17.40
2018-08-24T06:19:12.738Z,17.30
2018-08-24T06:21:41.041Z,17.30
2018-08-24T06:24:09.424Z,17.30
2018-08-24T06:26:37.775Z,17.40
2018-08-24T06:29:06.276Z,17.30
2018-08-24T06:31:34.783Z,17.30
2018-08-24T06:34:03.176Z,17.30
2018-08-24T06:36:31.536Z,17.40
2018-08-24T06:38:59.900Z,17.50
2018-08-24T06:41:28.243Z,17.60
2018-08-24T06:43:56.690Z,17.70
2018-08-24T06:46:25.148Z,17.80
2018-08-24T06:48:53.525Z,17.70
2018-08-24T06:51:21.849Z,17.70
2018-08-24T06:53:50.280Z,17.70
2018-08-24T06:56:18.716Z,17.70
2018-08-24T06:58:47.065Z,17.70
2018-08-24T07:01:15.531Z,17.60
2018-08-24T07:03:43.969Z,17.70
2018-08-24T07:06:12.352Z,17.60
2018-08-24T07:08:40.676Z,17.70
2018-08-24T07:11:09.063Z,17.70
2018-08-24T07:13:38.688Z,17.80
2018-08-24T07:16:07.049Z,17.90
2018-08-24T07:18:37.570Z,18.00
2018-08-24T07:21:05.960Z,18.10
2018-08-24T07:23:34.876Z,18.20
2018-08-24T07:26:03.211Z,18.20
2018-08-24T07:28:31.559Z,18.30
2018-08-24T07:30:59.960Z,18.30
2018-08-24T07:33:28.384Z,18.40
2018-08-24T07:35:56.735Z,18.30
2018-08-24T07:38:25.086Z,18.30
2018-08-24T07:40:53.795Z,18.40
2018-08-24T07:43:22.116Z,18.40
2018-08-24T07:45:50.518Z,18.30
2018-08-24T07:48:18.892Z,18.30
2018-08-24T07:50:47.264Z,18.30
2018-08-24T07:53:15.587Z,18.30
2018-08-24T07:55:44.550Z,18.40
2018-08-24T07:58:12.867Z,18.50
2018-08-24T08:00:41.440Z,18.40
2018-08-24T08:03:09.888Z,18.30
2018-08-24T08:05:38.298Z,18.30
2018-08-24T08:08:06.708Z,18.30
2018-08-24T08:10:39.013Z,18.30
2018-08-24T08:13:08.258Z,18.20
2018-08-24T08:15:36.731Z,18.20
2018-08-24T08:18:05.277Z,18.40
2018-08-24T08:20:33.668Z,18.50
2018-08-24T08:23:02.044Z,18.60
2018-08-24T08:25:30.412Z,18.60
2018-08-24T08:27:58.826Z,18.70
2018-08-24T08:30:27.352Z,18.70
2018-08-24T08:32:55.961Z,18.60
2018-08-24T08:35:24.280Z,18.60
2018-08-24T08:37:52.694Z,18.70
2018-08-24T08:40:21.103Z,18.70
2018-08-24T08:42:49.433Z,18.60
2018-08-24T08:45:17.839Z,18.60
2018-08-24T08:47:46.534Z,18.60
2018-08-24T08:50:14.925Z,18.50
2018-08-24T08:52:43.290Z,18.40
2018-08-24T08:55:11.697Z,18.30
2018-08-24T08:57:40.060Z,18.20
2018-08-24T09:00:08.560Z,18.20
2018-08-24T09:02:36.929Z,18.10
2018-08-24T09:05:05.468Z,18.10
2018-08-24T09:07:33.870Z,18.10
2018-08-24T09:10:02.382Z,18.10
2018-08-24T09:12:30.781Z,18.10
2018-08-24T09:14:59.156Z,18.00
2018-08-24T09:17:32.963Z,18.00
2018-08-24T09:20:06.663Z,17.90
2018-08-24T09:22:40.378Z,17.80
2018-08-24T09:25:14.205Z,17.70
2018-08-24T09:27:48.005Z,17.60
2018-08-24T09:30:16.463Z,17.70
2018-08-24T09:32:44.938Z,17.70
2018-08-24T09:35:13.219Z,17.80
2018-08-24T09:37:41.584Z,17.90
2018-08-24T09:40:09.933Z,18.00
2018-08-24T09:42:38.472Z,18.20
2018-08-24T09:45:06.920Z,18.20
2018-08-24T09:47:40.780Z,18.40
2018-08-24T09:50:14.647Z,18.50
2018-08-24T09:52:47.309Z,18.70
2018-08-24T09:55:15.710Z,18.70
2018-08-24T09:57:44.084Z,18.70
2018-08-24T10:00:12.478Z,19.00
2018-08-24T10:02:43.520Z,19.30
2018-08-24T10:05:17.510Z,19.30
2018-08-24T10:07:57.807Z,19.60
2018-08-24T10:10:26.235Z,19.60
2018-08-24T10:12:54.741Z,19.70
2018-08-24T10:15:23.223Z,19.70
2018-08-24T10:17:51.613Z,20.20
2018-08-24T10:20:19.974Z,20.20
2018-08-24T10:22:48.379Z,20.30
2018-08-24T10:25:17.049Z,20.00
2018-08-24T10:27:45.994Z,20.10
2018-08-24T10:30:14.513Z,19.90
2018-08-24T10:32:43.018Z,20.10
2018-08-24T10:35:11.461Z,20.40
2018-08-24T10:37:39.828Z,20.60
2018-08-24T10:40:08.228Z,21.00
2018-08-24T10:42:36.643Z,21.70
2018-08-24T10:45:05.382Z,22.10
2018-08-24T10:47:33.788Z,22.40
2018-08-24T10:50:02.282Z,22.50
2018-08-24T10:52:30.788Z,22.70
2018-08-24T10:54:59.464Z,22.90
2018-08-24T10:57:27.908Z,23.00
2018-08-24T10:59:57.028Z,23.00
2018-08-24T11:02:25.634Z,23.70
2018-08-24T11:04:54.093Z,24.00
2018-08-24T11:07:22.642Z,23.80
2018-08-24T11:09:50.988Z,23.90
2018-08-24T11:12:19.416Z,23.80
2018-08-24T11:14:47.817Z,23.10
2018-08-24T11:17:16.371Z,22.60
2018-08-24T11:19:44.849Z,22.20
2018-08-24T11:22:13.413Z,21.90
2018-08-24T11:24:41.857Z,22.00
2018-08-24T11:27:10.431Z,22.00
2018-08-24T11:29:39.708Z,21.90
2018-08-24T11:32:08.078Z,22.00
2018-08-24T11:34:36.573Z,22.50
2018-08-24T11:37:05.095Z,22.60
2018-08-24T11:39:33.630Z,23.00
2018-08-24T11:42:02.818Z,23.10
2018-08-24T11:44:31.224Z,22.90
2018-08-24T11:46:59.643Z,22.20
2018-08-24T11:49:28.080Z,22.00
2018-08-24T11:51:56.514Z,22.50
2018-08-24T11:54:24.962Z,22.80
2018-08-24T11:56:53.432Z,23.20
2018-08-24T11:59:21.971Z,23.90
2018-08-24T12:01:50.363Z,24.50
2018-08-24T12:04:18.800Z,24.60
2018-08-24T12:06:47.296Z,23.90
2018-08-24T12:09:15.670Z,24.40
2018-08-24T12:11:44.044Z,24.70
2018-08-24T12:14:12.452Z,24.60
2018-08-24T12:16:40.829Z,24.40
2018-08-24T12:19:09.454Z,24.60
2018-08-24T12:21:38.132Z,24.60
2018-08-24T12:24:06.565Z,24.80
2018-08-24T12:26:34.945Z,24.90
2018-08-24T12:29:05.647Z,24.60
2018-08-24T12:31:34.551Z,23.50
2018-08-24T12:34:03.199Z,23.60
2018-08-24T12:36:31.806Z,23.40
2018-08-24T12:39:00.253Z,23.50
2018-08-24T12:41:28.717Z,23.70
2018-08-24T12:43:57.265Z,24.20
2018-08-24T12:46:25.687Z,24.30
2018-08-24T12:48:54.093Z,24.50
2018-08-24T12:51:22.635Z,24.60
2018-08-24T12:53:51.622Z,24.80
2018-08-24T12:56:21.622Z,24.60
2018-08-24T12:58:51.819Z,24.70
2018-08-24T13:01:20.940Z,25.10
2018-08-24T13:03:50.033Z,25.70
2018-08-24T13:06:18.792Z,25.20
2018-08-24T13:08:47.522Z,24.80
2018-08-24T13:11:16.206Z,24.30
2018-08-24T13:13:44.778Z,23.90
2018-08-24T13:16:13.458Z,24.00
2018-08-24T13:18:43.238Z,24.50
2018-08-24T13:21:12.388Z,24.50
2018-08-24T13:23:40.996Z,24.30
2018-08-24T13:26:09.476Z,24.30
2018-08-24T13:28:38.316Z,23.70
2018-08-24T13:31:07.310Z,23.70
2018-08-24T13:33:35.962Z,23.50
2018-08-24T13:36:04.346Z,23.80
2018-08-24T13:38:32.810Z,23.80
2018-08-24T13:41:01.570Z,23.40
2018-08-24T13:43:29.935Z,23.30
2018-08-24T13:45:58.595Z,22.70
2018-08-24T13:48:27.056Z,22.70
2018-08-24T13:50:55.716Z,22.20
2018-08-24T13:53:24.143Z,22.10
2018-08-24T13:55:52.557Z,22.60
2018-08-24T13:58:21.185Z,22.50
2018-08-24T14:00:49.688Z,22.40
2018-08-24T14:03:18.037Z,22.00
2018-08-24T14:05:46.613Z,22.00
2018-08-24T14:08:15.039Z,21.90
2018-08-24T14:10:44.204Z,22.30
2018-08-24T14:13:12.769Z,22.50
2018-08-24T14:15:40.988Z,22.70
2018-08-24T14:18:09.474Z,22.50
2018-08-24T14:20:37.869Z,22.50
2018-08-24T14:23:06.275Z,22.40
2018-08-24T14:25:34.716Z,22.60
2018-08-24T14:28:03.809Z,22.70
2018-08-24T14:30:32.142Z,23.20
2018-08-24T14:33:00.585Z,23.50
2018-08-24T14:35:28.978Z,23.70
2018-08-24T14:37:57.392Z,23.60
2018-08-24T14:40:25.831Z,23.70
2018-08-24T14:42:54.237Z,23.90
2018-08-24T14:45:22.655Z,23.50
2018-08-24T14:47:51.096Z,22.90
2018-08-24T14:50:19.476Z,22.50
2018-08-24T14:52:47.798Z,22.10
2018-08-24T14:55:16.483Z,21.80
2018-08-24T14:57:44.885Z,21.80
2018-08-24T15:00:13.411Z,21.80
2018-08-24T15:02:41.846Z,21.80
2018-08-24T15:05:11.739Z,21.90
2018-08-24T15:07:40.246Z,21.90
2018-08-24T15:10:09.462Z,22.10
2018-08-24T15:12:38.193Z,22.20
2018-08-24T15:15:06.919Z,22.20
2018-08-24T15:17:35.409Z,22.10
2018-08-24T15:20:04.252Z,22.10
2018-08-24T15:22:33.153Z,22.00
2018-08-24T15:25:01.516Z,22.00
2018-08-24T15:27:30.254Z,21.80
2018-08-24T15:29:58.959Z,21.70
2018-08-24T15:32:27.303Z,21.60
2018-08-24T15:34:55.791Z,21.60
2018-08-24T15:37:24.101Z,21.30
2018-08-24T15:39:52.471Z,21.10
2018-08-24T15:42:21.436Z,21.10
2018-08-24T15:44:49.832Z,21.10
2018-08-24T15:47:18.210Z,21.20
2018-08-24T15:49:46.619Z,21.00
2018-08-24T15:52:14.960Z,21.00
2018-08-24T15:54:43.472Z,20.80
2018-08-24T15:57:11.767Z,20.80
2018-08-24T15:59:40.146Z,20.70
2018-08-24T16:02:08.700Z,20.50
2018-08-24T16:04:37.140Z,20.40
2018-08-24T16:07:05.597Z,20.40
2018-08-24T16:09:34.054Z,20.40
2018-08-24T16:12:02.833Z,20.30
2018-08-24T16:14:31.355Z,20.30
2018-08-24T16:16:59.829Z,20.10
2018-08-24T16:19:28.479Z,20.10
2018-08-24T16:21:57.133Z,20.10
2018-08-24T16:24:26.549Z,19.90
2018-08-24T16:26:54.988Z,19.90
2018-08-24T16:29:26.090Z,19.80
2018-08-24T16:31:54.492Z,19.80
2018-08-24T16:34:22.825Z,19.60
2018-08-24T16:36:51.324Z,19.60
2018-08-24T16:39:19.737Z,19.60
2018-08-24T16:41:48.148Z,19.60
2018-08-24T16:44:16.570Z,19.50
2018-08-24T16:46:44.995Z,19.40
2018-08-24T16:49:13.533Z,19.40
2018-08-24T16:51:42.100Z,19.40
2018-08-24T16:54:10.554Z,19.30
2018-08-24T16:56:38.872Z,19.30
2018-08-24T16:59:07.164Z,19.30
2018-08-24T17:01:44.965Z,19.20
2018-08-24T17:07:43.644Z,19.20
2018-08-24T17:10:12.121Z,19.00
2018-08-24T17:12:40.575Z,19.00
2018-08-24T17:15:08.972Z,19.00
2018-08-24T17:17:37.341Z,19.00
2018-08-24T17:20:05.848Z,18.90
2018-08-24T17:22:34.292Z,18.90
2018-08-24T17:25:02.751Z,18.80
2018-08-24T17:27:31.352Z,18.80
2018-08-24T17:29:59.834Z,18.70
2018-08-24T17:32:28.197Z,18.60
2018-08-24T17:34:56.562Z,18.50
2018-08-24T17:37:25.006Z,18.50
2018-08-24T17:39:53.347Z,18.50
2018-08-24T17:42:21.682Z,18.40
2018-08-24T17:44:50.113Z,18.40
2018-08-24T17:47:18.700Z,18.30
2018-08-24T17:49:47.268Z,18.30
2018-08-24T17:52:15.873Z,18.20
2018-08-24T17:54:44.254Z,18.20
2018-08-24T17:57:12.627Z,18.10
2018-08-24T17:59:41.028Z,18.10
2018-08-24T18:02:09.388Z,18.10
2018-08-24T18:04:38.011Z,18.10
2018-08-24T18:07:06.331Z,18.00
2018-08-24T18:09:34.877Z,17.90
2018-08-24T18:12:03.243Z,17.90
2018-08-24T18:14:31.654Z,17.90
2018-08-24T18:17:00.149Z,17.80
2018-08-24T18:19:28.557Z,17.80
2018-08-24T18:21:57.010Z,17.70
2018-08-24T18:24:25.565Z,17.70
2018-08-24T18:26:53.817Z,17.60
2018-08-24T18:29:22.353Z,17.60
2018-08-24T18:31:50.828Z,17.50
2018-08-24T18:34:19.315Z,17.50
2018-08-24T18:36:48.422Z,17.50
2018-08-24T18:39:19.321Z,17.50
2018-08-24T18:41:47.856Z,17.40
2018-08-24T18:44:16.309Z,17.40
2018-08-24T18:46:44.769Z,17.40
2018-08-24T18:49:13.170Z,17.40
2018-08-24T18:51:41.544Z,17.40
2018-08-24T18:54:09.986Z,17.40
2018-08-24T18:56:38.567Z,17.30
2018-08-24T18:59:07.042Z,17.30
2018-08-24T19:01:35.527Z,17.30
2018-08-24T19:04:03.951Z,17.30
2018-08-24T19:06:32.304Z,17.30
2018-08-24T19:09:00.802Z,17.30
2018-08-24T19:11:34.508Z,17.20
2018-08-24T19:14:03.115Z,17.20
2018-08-24T19:16:31.463Z,17.20
2018-08-24T19:19:05.297Z,17.10
2018-08-24T19:21:39.003Z,17.10
2018-08-24T19:24:07.561Z,17.00
2018-08-24T19:26:36.037Z,17.00
2018-08-24T19:29:09.972Z,16.90
2018-08-24T19:31:38.562Z,16.90
2018-08-24T19:34:07.157Z,16.90
2018-08-24T19:36:36.104Z,16.80
2018-08-24T19:39:07.883Z,16.80
2018-08-24T19:41:41.436Z,16.70
2018-08-24T19:44:09.821Z,16.70
2018-08-24T19:46:38.229Z,16.60
2018-08-24T19:49:12.150Z,16.60
2018-08-24T19:51:40.812Z,16.60
2018-08-24T19:54:09.295Z,16.60
2018-08-24T19:56:37.864Z,16.50
2018-08-24T19:59:08.042Z,16.50
2018-08-24T20:01:36.432Z,16.50
2018-08-24T20:04:05.761Z,16.40
2018-08-24T20:06:39.721Z,16.40
2018-08-24T20:09:16.324Z,16.30
2018-08-24T20:11:50.971Z,16.30
2018-08-24T20:14:24.763Z,16.20
2018-08-24T20:16:58.625Z,16.20
2018-08-24T20:19:27.880Z,16.10
2018-08-24T20:21:56.370Z,16.10
2018-08-24T20:24:24.949Z,16.10
2018-08-24T20:26:53.286Z,16.10
2018-08-24T20:29:21.674Z,16.10
2018-08-24T20:31:50.180Z,16.10
2018-08-24T20:34:18.690Z,16.00
2018-08-24T20:36:47.203Z,16.00
2018-08-24T20:39:15.740Z,16.00
2018-08-24T20:41:44.160Z,15.90
2018-08-24T20:44:14.155Z,15.90
2018-08-24T20:46:42.511Z,15.90
2018-08-24T20:49:10.912Z,15.90
2018-08-24T20:51:39.360Z,15.90
2018-08-24T20:54:07.868Z,15.90
2018-08-24T20:56:36.345Z,15.90
2018-08-24T20:59:05.453Z,15.80
2018-08-24T21:01:33.881Z,15.90
2018-08-24T21:04:03.209Z,15.80
2018-08-24T21:06:31.991Z,15.90
2018-08-24T21:09:00.342Z,15.90
2018-08-24T21:11:28.708Z,15.90
2018-08-24T21:13:57.090Z,15.80
2018-08-24T21:16:25.992Z,15.80
2018-08-24T21:18:55.526Z,15.80
2018-08-24T21:21:23.964Z,15.80
2018-08-24T21:23:52.374Z,15.80
2018-08-24T21:26:20.744Z,15.80
2018-08-24T21:28:49.112Z,15.80
2018-08-24T21:31:17.667Z,15.80
2018-08-24T21:33:46.154Z,15.80
2018-08-24T21:36:14.493Z,15.70
2018-08-24T21:38:43.527Z,15.70
2018-08-24T21:41:11.972Z,15.70
2018-08-24T21:43:40.875Z,15.70
2018-08-24T21:46:09.636Z,15.60
2018-08-24T21:48:38.075Z,15.60
2018-08-24T21:51:06.421Z,15.50
2018-08-24T21:53:34.763Z,15.50
2018-08-24T21:56:03.117Z,15.50
2018-08-24T21:58:31.513Z,15.40
2018-08-24T22:00:59.828Z,15.40
2018-08-24T22:03:28.166Z,15.30
2018-08-24T22:05:56.502Z,15.20
2018-08-24T22:08:24.859Z,15.10
2018-08-24T22:10:53.342Z,15.10
2018-08-24T22:13:21.680Z,15.00
2018-08-24T22:15:50.001Z,14.90
2018-08-24T22:18:18.460Z,14.90
2018-08-24T22:20:46.816Z,14.80
2018-08-24T22:23:15.895Z,14.80
2018-08-24T22:25:44.305Z,14.70
2018-08-24T22:28:14.429Z,14.70
2018-08-24T22:30:43.004Z,14.70
2018-08-24T22:33:11.739Z,14.70
2018-08-24T22:35:40.167Z,14.70
2018-08-24T22:38:08.699Z,14.70
2018-08-24T22:40:37.129Z,14.80
2018-08-24T22:43:09.729Z,14.80
2018-08-24T22:45:38.079Z,14.80
2018-08-24T22:48:06.407Z,14.80
2018-08-24T22:50:34.783Z,14.80
2018-08-24T22:53:03.221Z,14.80
2018-08-24T22:55:31.585Z,14.80
2018-08-24T22:57:59.936Z,14.80
2018-08-24T23:00:28.335Z,14.80
2018-08-24T23:02:57.687Z,14.80
2018-08-24T23:05:26.070Z,14.80
2018-08-24T23:08:00.952Z,14.80
2018-08-24T23:10:29.342Z,14.80
2018-08-24T23:12:57.816Z,14.80
2018-08-24T23:15:26.271Z,14.80
2018-08-24T23:17:54.694Z,14.80
2018-08-24T23:20:23.078Z,14.80
2018-08-24T23:22:51.698Z,14.70
2018-08-24T23:25:20.088Z,14.70
2018-08-24T23:27:48.448Z,14.70
2018-08-24T23:30:16.856Z,14.70
2018-08-24T23:32:45.168Z,14.70
2018-08-24T23:35:13.674Z,14.70
2018-08-24T23:37:42.089Z,14.70
2018-08-24T23:40:10.437Z,14.70
2018-08-24T23:42:38.831Z,14.70
2018-08-24T23:45:07.209Z,14.70
2018-08-24T23:47:35.588Z,14.70
2018-08-24T23:50:04.120Z,14.70
2018-08-24T23:52:32.456Z,14.70
2018-08-24T23:55:01.483Z,14.70
2018-08-24T23:57:29.895Z,14.60
2018-08-24T23:59:58.252Z,14.60
